Time;durP1;ratioP1;P1;durP2;ratioP2;P2;SDS_P1;SDS_P2;PMS_P1;PMS_P2;Temp;Humidity;BMP_temperature;BMP_pressure;BME280_temperature;BME280_humidity;BME280_pressure;Samples;Min_cycle;Max_cycle;Signal;HPM_P1;HPM_P2
2022/10/01 00:01:39;;;;;;;15.68;10.15;;;;;;;11.05;74.94;100251.78;4180607;28;20491;-59
2022/10/01 00:03:43;;;;;;;14.75;11.05;;;;;;;11.05;75.38;100247.44;4178657;28;20033;-59
2022/10/01 00:05:46;;;;;;;15.93;11.05;;;;;;;11.09;75.05;100254.41;4180163;28;20041;-59
2022/10/01 00:07:49;;;;;;;11.13;8.77;;;;;;;11.12;74.88;100254.44;4179381;28;20033;-59
2022/10/01 00:09:51;;;;;;;13.10;9.20;;;;;;;11.12;74.55;100257.03;4180490;28;20044;-59
2022/10/01 00:11:55;;;;;;;13.02;10.40;;;;;;;11.21;73.88;100244.97;4180481;28;20044;-59
2022/10/01 00:13:58;;;;;;;12.65;10.68;;;;;;;11.18;74.69;100259.72;4179725;28;20037;-59
2022/10/01 00:16:04;;;;;;;12.43;9.95;;;;;;;11.20;74.45;100256.25;4180440;28;20037;-59
2022/10/01 00:18:09;;;;;;;19.27;10.73;;;;;;;11.23;74.01;100262.34;4180410;28;20068;-59
2022/10/01 00:20:12;;;;;;;13.43;9.20;;;;;;;11.15;74.29;100259.66;4162677;28;20049;-59
2022/10/01 00:22:17;;;;;;;13.85;9.52;;;;;;;11.09;74.02;100254.41;4180634;28;20045;-59
2022/10/01 00:24:20;;;;;;;13.70;9.38;;;;;;;11.05;74.45;100260.44;4162026;28;20594;-59
2022/10/01 00:26:26;;;;;;;13.30;9.38;;;;;;;10.85;75.18;100249.00;4162744;28;20046;-59
2022/10/01 00:28:29;;;;;;;12.77;8.80;;;;;;;10.83;74.91;100251.56;4162780;28;20080;-59
2022/10/01 00:30:32;;;;;;;16.30;11.10;;;;;;;10.91;74.63;100264.69;4162685;28;20045;-59
2022/10/01 00:32:43;;;;;;;15.43;12.10;;;;;;;10.91;75.30;100260.34;4162694;28;20133;-59
2022/10/01 00:34:46;;;;;;;15.25;10.60;;;;;;;10.92;74.88;100262.09;4178440;28;20094;-59
2022/10/01 00:36:49;;;;;;;11.18;9.75;;;;;;;10.91;73.82;100257.75;4180299;28;20091;-59
2022/10/01 00:38:52;;;;;;;14.20;11.38;;;;;;;10.78;75.06;100258.47;4162537;28;20488;-59
2022/10/01 00:40:54;;;;;;;14.77;11.50;;;;;;;10.91;74.48;100249.06;4180293;28;20095;-59
2022/10/01 00:42:57;;;;;;;16.70;12.10;;;;;;;10.90;74.40;100252.53;4162558;28;20160;-59
2022/10/01 00:45:01;;;;;;;15.75;11.55;;;;;;;10.90;73.83;100247.31;4179392;28;20048;-59
2022/10/01 00:47:19;;;;;;;14.95;11.63;;;;;;;10.94;73.80;100243.91;4180249;28;20037;-59
2022/10/01 00:49:26;;;;;;;13.05;11.07;;;;;;;10.92;73.89;100237.78;4179239;28;20037;-59
2022/10/01 00:51:32;;;;;;;15.23;11.85;;;;;;;10.93;73.69;100232.59;4179057;28;20041;-59
2022/10/01 00:53:37;;;;;;;16.20;11.75;;;;;;;10.96;73.16;100231.75;4178126;28;20527;-59
2022/10/01 00:55:41;;;;;;;14.82;11.25;;;;;;;10.87;74.01;100231.69;4180159;28;20047;-59
2022/10/01 00:57:45;;;;;;;13.98;9.55;;;;;;;10.83;74.34;100234.25;4180151;28;20045;-59
2022/10/01 00:59:49;;;;;;;14.88;9.20;;;;;;;10.80;74.20;100231.59;4180028;28;20041;-59
2022/10/01 01:01:52;;;;;;;15.05;9.48;;;;;;;10.73;74.45;100227.25;4180157;28;20069;-59
2022/10/01 01:03:56;;;;;;;16.25;9.95;;;;;;;10.70;74.67;100236.72;4161757;28;20076;-59
2022/10/01 01:06:00;;;;;;;15.18;9.27;;;;;;;10.87;74.00;100229.09;4180007;28;20103;-60
2022/10/01 01:08:04;;;;;;;13.55;10.32;;;;;;;10.85;74.93;100231.69;4146134;28;20062;-59
2022/10/01 01:10:08;;;;;;;13.32;9.75;;;;;;;10.88;73.90;100223.91;4182701;28;20049;-59
2022/10/01 01:12:23;;;;;;;10.65;8.38;;;;;;;10.92;74.29;100230.00;4165335;28;20081;-59
2022/10/01 01:14:33;;;;;;;12.82;8.95;;;;;;;10.93;74.79;100227.41;4164509;28;20057;-59
2022/10/01 01:16:41;;;;;;;14.27;9.35;;;;;;;10.93;74.43;100217.00;4183019;28;20079;-59
2022/10/01 01:18:53;;;;;;;13.15;9.13;;;;;;;10.95;74.91;100225.69;4183219;28;20041;-59
2022/10/01 01:21:25;;;;;;;12.57;8.73;;;;;;;10.98;74.52;100212.72;4182910;28;20044;-59
2022/10/01 01:23:43;;;;;;;13.43;8.70;;;;;;;11.07;74.37;100208.44;4182000;28;20423;-59
2022/10/01 01:25:49;;;;;;;13.15;8.63;;;;;;;11.03;74.22;100207.56;4182826;28;20056;-59
2022/10/01 01:28:07;;;;;;;13.57;8.93;;;;;;;11.03;74.73;100211.91;4183084;28;20471;-59
2022/10/01 01:30:13;;;;;;;15.82;7.78;;;;;;;10.94;74.92;100220.50;4182793;28;20494;-59
2022/10/01 01:32:22;;;;;;;11.40;8.15;;;;;;;10.94;74.37;100220.50;4182769;28;20095;-59
2022/10/01 01:34:31;;;;;;;9.13;6.32;;;;;;;10.87;74.89;100216.94;4181982;28;20477;-59
2022/10/01 01:36:37;;;;;;;10.45;7.18;;;;;;;10.99;74.75;100210.97;4182640;28;20029;-59
2022/10/01 01:38:43;;;;;;;8.05;6.53;;;;;;;10.96;74.22;100211.81;4148565;28;20050;-59
2022/10/01 01:40:50;;;;;;;9.05;6.82;;;;;;;10.93;74.08;100209.19;4182678;28;20426;-59
2022/10/01 01:42:55;;;;;;;9.75;6.30;;;;;;;11.00;73.63;100199.72;4182561;28;20033;-58
2022/10/01 01:45:02;;;;;;;8.30;6.40;;;;;;;10.95;74.10;100197.09;4164053;28;20099;-60
2022/10/01 01:47:09;;;;;;;7.97;6.03;;;;;;;10.99;74.12;100200.56;4164701;28;20046;-59
2022/10/01 01:49:16;;;;;;;9.10;6.82;;;;;;;10.89;73.73;100207.41;4164746;28;20137;-59
2022/10/01 01:51:25;;;;;;;10.05;6.63;;;;;;;10.87;73.95;100190.09;4164707;28;20041;-59
2022/10/01 01:53:31;;;;;;;10.00;7.63;;;;;;;10.92;73.47;100188.38;4181697;28;20319;-59
2022/10/01 01:55:36;;;;;;;15.73;7.32;;;;;;;10.93;73.75;100201.38;4182466;28;20045;-59
2022/10/01 01:57:41;;;;;;;8.90;6.72;;;;;;;11.03;73.44;100197.16;4164606;28;20107;-59
2022/10/01 01:59:45;;;;;;;13.35;6.53;;;;;;;10.92;73.48;100189.25;4182321;28;20498;-59
2022/10/01 02:01:50;;;;;;;10.55;7.30;;;;;;;10.91;73.74;100186.66;4164608;28;20103;-59
2022/10/01 02:03:53;;;;;;;9.10;5.85;;;;;;;10.92;73.38;100193.56;4163777;28;20056;-59
2022/10/01 02:06:04;;;;;;;8.98;6.07;;;;;;;10.90;74.39;100180.56;4164452;28;20151;-59
2022/10/01 02:08:26;;;;;;;7.47;5.68;;;;;;;10.87;74.20;100192.69;4182243;28;20119;-59
2022/10/01 02:10:45;;;;;;;14.98;7.80;;;;;;;10.93;73.79;100185.78;4182129;28;20041;-59
2022/10/01 02:13:02;;;;;;;8.48;6.53;;;;;;;10.88;73.65;100178.78;4182137;28;20041;-59
2022/10/01 02:15:10;;;;;;;9.57;6.22;;;;;;;10.94;74.08;100182.34;4181569;28;20037;-59
2022/10/01 02:17:22;;;;;;;9.15;6.18;;;;;;;10.81;74.54;100191.75;4182265;28;20033;-59
2022/10/01 02:19:35;;;;;;;10.13;6.50;;;;;;;10.95;73.33;100191.00;4147884;28;20038;-59
2022/10/01 02:21:41;;;;;;;9.02;6.55;;;;;;;10.89;73.29;100188.34;4181190;28;20083;-59
2022/10/01 02:23:51;;;;;;;7.18;5.57;;;;;;;10.80;74.22;100187.41;4181219;28;20060;-59
2022/10/01 02:25:58;;;;;;;10.15;7.28;;;;;;;10.85;73.64;100181.38;4182117;28;20048;-59
2022/10/01 02:28:05;;;;;;;11.10;6.78;;;;;;;10.91;74.48;100178.84;4181954;28;20075;-59
2022/10/01 02:30:10;;;;;;;9.88;6.63;;;;;;;10.89;73.79;100183.16;4181804;28;20037;-59
2022/10/01 02:32:18;;;;;;;8.40;6.55;;;;;;;10.93;74.25;100187.53;4164116;28;20451;-59
2022/10/01 02:34:24;;;;;;;11.77;6.50;;;;;;;10.86;74.28;100183.13;4163462;28;20092;-59
2022/10/01 02:36:29;;;;;;;14.63;7.32;;;;;;;10.88;73.41;100176.19;4164144;28;20047;-59
2022/10/01 02:38:33;;;;;;;;;;;;;;;10.77;73.72;100176.97;4182149;28;20076;-59
2022/10/01 02:40:40;;;;;;;9.32;6.82;;;;;;;10.78;74.45;100170.94;4181616;28;19921;-59
2022/10/01 02:42:48;;;;;;;9.68;6.80;;;;;;;10.90;73.81;100164.97;4147570;28;20054;-59
2022/10/01 02:44:53;;;;;;;9.43;6.65;;;;;;;10.92;74.01;100171.06;4180886;28;20410;-59
2022/10/01 02:47:02;;;;;;;9.88;5.88;;;;;;;10.75;73.43;100165.72;4181429;28;20063;-59
2022/10/01 02:49:06;;;;;;;8.80;6.57;;;;;;;10.73;74.44;100164.84;4181561;28;20045;-59
2022/10/01 02:51:24;;;;;;;7.68;5.88;;;;;;;10.78;73.39;100162.28;4163792;28;20066;-59
2022/10/01 02:53:35;;;;;;;10.65;6.40;;;;;;;10.77;73.72;100171.78;4180696;28;20063;-59
2022/10/01 02:55:40;;;;;;;8.93;6.45;;;;;;;10.73;74.53;100159.63;4163775;28;20087;-59
2022/10/01 02:57:42;;;;;;;11.10;5.72;;;;;;;10.82;73.44;100162.31;4163650;28;20045;-59
2022/10/01 02:59:44;;;;;;;9.20;6.10;;;;;;;10.57;73.94;100160.34;4181469;28;20052;-59
2022/10/01 03:01:47;;;;;;;8.65;5.90;;;;;;;10.76;73.85;100150.97;4181318;28;20065;-59
2022/10/01 03:03:52;;;;;;;10.73;5.82;;;;;;;10.75;73.46;100151.84;4162800;28;20037;-59
2022/10/01 03:05:56;;;;;;;;;;;;;;;10.66;74.63;100134.44;4181873;28;20094;-59
2022/10/01 03:07:59;;;;;;;7.63;5.18;;;;;;;10.69;74.11;100142.25;4163507;28;19921;-59
2022/10/01 03:10:02;;;;;;;7.43;5.75;;;;;;;10.75;74.17;100144.91;4163459;28;20092;-59
2022/10/01 03:12:06;;;;;;;8.90;5.72;;;;;;;10.89;73.61;100133.75;4181313;28;20099;-60
2022/10/01 03:14:10;;;;;;;8.68;5.45;;;;;;;10.93;74.05;100135.50;4162587;28;20076;-59
2022/10/01 03:16:12;;;;;;;14.90;5.60;;;;;;;10.86;73.23;100125.91;4163446;28;20120;-59
2022/10/01 03:18:15;;;;;;;9.82;5.25;;;;;;;10.82;73.54;100140.63;4181055;28;20511;-59
2022/10/01 03:20:18;;;;;;;10.60;5.40;;;;;;;10.76;73.74;100133.66;4181301;28;20052;-59
2022/10/01 03:22:23;;;;;;;9.00;5.22;;;;;;;10.87;73.62;100135.47;4146988;28;20462;-59
2022/10/01 03:24:26;;;;;;;7.28;4.82;;;;;;;10.78;73.99;100129.31;4162369;28;20077;-59
2022/10/01 03:26:28;;;;;;;7.38;4.65;;;;;;;10.84;74.10;100136.31;4180926;28;20049;-60
2022/10/01 03:28:31;;;;;;;7.07;5.00;;;;;;;10.86;74.11;100136.31;4163266;28;20060;-59
2022/10/01 03:30:34;;;;;;;10.48;6.68;;;;;;;10.94;73.28;100132.06;4180962;28;20213;-59
2022/10/01 03:32:37;;;;;;;6.90;5.18;;;;;;;10.97;73.62;100126.88;4146554;28;20054;-60
2022/10/01 03:34:40;;;;;;;7.05;4.90;;;;;;;10.83;73.64;100129.34;4180001;28;20045;-60
2022/10/01 03:36:43;;;;;;;7.47;5.07;;;;;;;10.79;73.48;100130.19;4180798;28;20037;-60
2022/10/01 03:38:47;;;;;;;6.13;4.57;;;;;;;10.86;74.05;100131.97;4180768;28;20037;-60
2022/10/01 03:40:49;;;;;;;8.50;4.97;;;;;;;10.87;73.45;100132.88;4163178;28;20043;-60
2022/10/01 03:42:52;;;;;;;10.88;5.57;;;;;;;10.83;73.65;100126.75;4163013;28;20534;-60
2022/10/01 03:44:55;;;;;;;5.85;4.40;;;;;;;10.82;72.84;100123.28;4179993;28;20083;-60
2022/10/01 03:46:58;;;;;;;5.88;4.60;;;;;;;10.86;73.37;100125.91;4180618;28;20414;-60
2022/10/01 03:49:01;;;;;;;6.57;4.97;;;;;;;10.87;72.72;100117.25;4180715;28;20487;-60
2022/10/01 03:51:04;;;;;;;6.15;4.40;;;;;;;10.87;73.71;100117.25;4180757;28;20041;-60
2022/10/01 03:53:07;;;;;;;6.40;4.32;;;;;;;10.88;72.87;100119.88;4180379;28;20107;-60
2022/10/01 03:55:11;;;;;;;7.30;4.20;;;;;;;10.80;73.51;100117.19;4180155;28;20044;-59
2022/10/01 03:57:14;;;;;;;10.05;4.82;;;;;;;10.82;73.72;100115.50;4180600;28;20048;-60
2022/10/01 03:59:16;;;;;;;6.78;4.60;;;;;;;10.87;73.68;100104.25;4180619;28;20129;-60
2022/10/01 04:01:19;;;;;;;10.18;4.90;;;;;;;10.77;73.42;100108.50;4180552;28;20045;-59
2022/10/01 04:03:22;;;;;;;5.50;3.88;;;;;;;10.80;73.54;100108.53;4179750;28;20143;-60
2022/10/01 04:05:25;;;;;;;5.15;3.50;;;;;;;10.92;72.72;100094.75;4180555;28;20041;-60
2022/10/01 04:07:28;;;;;;;5.25;4.25;;;;;;;11.00;73.37;100104.34;4162857;28;20040;-60
2022/10/01 04:09:31;;;;;;;7.40;4.25;;;;;;;11.10;73.08;100088.81;4162984;28;20052;-59
2022/10/01 04:11:35;;;;;;;4.32;3.28;;;;;;;10.99;72.65;100099.13;4180575;28;20097;-60
2022/10/01 04:13:38;;;;;;;7.53;3.75;;;;;;;10.96;72.86;100088.72;4145913;28;20104;-60
2022/10/01 04:15:41;;;;;;;7.30;4.57;;;;;;;11.05;73.03;100091.34;4146385;28;20046;-60
2022/10/01 04:17:44;;;;;;;5.30;3.70;;;;;;;10.79;73.36;100097.28;4162733;28;20518;-60
2022/10/01 04:19:47;;;;;;;6.57;3.95;;;;;;;10.77;73.98;100103.31;4162856;28;20407;-60
2022/10/01 04:21:50;;;;;;;8.55;4.45;;;;;;;10.73;74.09;100099.84;4180446;28;20041;-59
2022/10/01 04:23:53;;;;;;;5.55;3.80;;;;;;;10.71;74.46;100104.13;4179475;28;20095;-59
2022/10/01 04:25:58;;;;;;;6.82;3.78;;;;;;;10.76;74.77;100105.06;4180350;28;20037;-59
2022/10/01 04:28:05;;;;;;;7.90;4.03;;;;;;;10.87;74.38;100107.72;4180800;28;20103;-60
2022/10/01 04:30:09;;;;;;;7.45;4.10;;;;;;;10.85;75.26;100108.56;4162803;28;20552;-59
2022/10/01 04:32:12;;;;;;;5.25;3.67;;;;;;;10.78;74.63;100103.31;4180364;28;20513;-59
2022/10/01 04:34:15;;;;;;;8.30;4.13;;;;;;;10.78;76.03;100102.47;4179634;28;20132;-59
2022/10/01 04:36:18;;;;;;;7.07;4.20;;;;;;;10.73;75.66;100094.63;4162728;28;20435;-59
2022/10/01 04:38:21;;;;;;;9.85;4.68;;;;;;;10.87;75.59;100094.72;4162635;28;20049;-60
2022/10/01 04:40:24;;;;;;;5.95;3.63;;;;;;;10.80;76.18;100093.78;4180270;28;20548;-59
2022/10/01 04:42:26;;;;;;;7.00;4.40;;;;;;;10.91;75.94;100090.44;4180292;28;20083;-59
2022/10/01 04:44:30;;;;;;;8.70;4.38;;;;;;;10.90;76.02;100080.88;4181331;28;20521;-59
2022/10/01 04:46:33;;;;;;;8.65;5.10;;;;;;;10.90;75.62;100081.72;4183464;28;20037;-59
2022/10/01 04:48:36;;;;;;;7.53;4.57;;;;;;;10.80;76.82;100087.72;4183404;28;20063;-60
2022/10/01 04:50:39;;;;;;;6.38;3.85;;;;;;;10.68;77.25;100080.72;4183461;28;20500;-60
2022/10/01 04:52:42;;;;;;;8.98;4.15;;;;;;;10.80;77.25;100075.59;4183349;28;20041;-59
2022/10/01 04:54:45;;;;;;;8.27;4.07;;;;;;;10.70;77.33;100081.59;4182553;28;20410;-59
2022/10/01 04:56:48;;;;;;;7.55;4.85;;;;;;;10.85;76.88;100082.56;4165645;28;20061;-59
2022/10/01 04:58:50;;;;;;;9.00;4.22;;;;;;;10.86;76.82;100085.16;4165484;28;20605;-59
2022/10/01 05:00:54;;;;;;;6.30;4.18;;;;;;;10.85;77.49;100085.16;4183352;28;20041;-59
2022/10/01 05:03:03;;;;;;;7.32;4.32;;;;;;;10.71;77.90;100075.53;4183181;28;20140;-59
2022/10/01 05:05:07;;;;;;;5.45;4.10;;;;;;;10.63;78.25;100082.38;4182427;28;20071;-59
2022/10/01 05:07:10;;;;;;;6.80;4.88;;;;;;;10.78;77.21;100081.66;4183123;28;20049;-59
2022/10/01 05:09:13;;;;;;;9.00;4.57;;;;;;;10.83;77.46;100078.25;4182975;28;20033;-59
2022/10/01 05:11:16;;;;;;;5.72;3.63;;;;;;;10.76;77.86;100072.97;4183185;28;20410;-59
2022/10/01 05:13:18;;;;;;;9.48;6.22;;;;;;;10.72;77.89;100064.28;4164559;28;20045;-59
2022/10/01 05:15:21;;;;;;;6.75;4.88;;;;;;;10.73;78.27;100060.84;4183115;28;20040;-59
2022/10/01 05:17:25;;;;;;;6.80;4.47;;;;;;;10.73;78.52;100053.03;4183139;28;20449;-59
2022/10/01 05:19:29;;;;;;;9.50;4.45;;;;;;;10.64;78.88;100053.84;4182995;28;20033;-60
2022/10/01 05:21:32;;;;;;;8.13;4.90;;;;;;;10.63;78.96;100054.69;4183059;28;20045;-60
2022/10/01 05:23:35;;;;;;;8.68;5.05;;;;;;;10.77;78.38;100059.97;4181907;28;20048;-59
2022/10/01 05:25:38;;;;;;;7.63;4.40;;;;;;;10.67;79.00;100058.16;4165224;28;20448;-59
2022/10/01 05:27:40;;;;;;;6.85;4.97;;;;;;;10.74;78.71;100059.09;4165145;28;20547;-59
2022/10/01 05:29:44;;;;;;;7.25;5.50;;;;;;;10.70;79.22;100052.13;4165028;28;20617;-59
2022/10/01 05:31:48;;;;;;;7.35;4.63;;;;;;;10.59;79.11;100050.31;4165244;28;20049;-59
2022/10/01 05:33:53;;;;;;;7.30;4.45;;;;;;;10.67;78.84;100045.16;4164258;28;20042;-60
2022/10/01 05:35:56;;;;;;;7.45;4.10;;;;;;;10.67;79.29;100045.16;4182712;28;20048;-59
2022/10/01 05:38:01;;;;;;;6.40;4.38;;;;;;;10.67;79.81;100041.72;4164895;28;20049;-59
2022/10/01 05:40:05;;;;;;;5.68;4.05;;;;;;;10.61;79.85;100043.38;4182770;28;20033;-60
2022/10/01 05:42:07;;;;;;;7.00;4.50;;;;;;;10.65;79.48;100042.56;4164925;28;20048;-59
2022/10/01 05:44:10;;;;;;;7.20;4.43;;;;;;;10.71;79.79;100046.06;4163983;28;20057;-59
2022/10/01 05:46:13;;;;;;;7.20;4.53;;;;;;;10.75;78.72;100056.50;4182628;28;20037;-59
2022/10/01 05:48:16;;;;;;;7.30;4.63;;;;;;;10.79;78.86;100060.88;4182411;28;20045;-59
2022/10/01 05:50:20;;;;;;;8.13;4.40;;;;;;;10.70;79.68;100047.78;4182455;28;20036;-59
2022/10/01 05:52:22;;;;;;;5.03;3.63;;;;;;;10.69;78.81;100053.88;4182507;28;20052;-59
2022/10/01 05:54:25;;;;;;;6.57;4.30;;;;;;;10.63;79.17;100051.19;4181390;28;20040;-59
2022/10/01 05:56:28;;;;;;;5.63;3.72;;;;;;;10.70;79.48;100052.13;4182354;28;20048;-59
2022/10/01 05:58:31;;;;;;;6.35;4.28;;;;;;;10.70;79.87;100063.38;4182320;28;20415;-59
2022/10/01 06:00:35;;;;;;;6.25;3.88;;;;;;;10.75;79.69;100076.44;4182472;28;20052;-59
2022/10/01 06:02:37;;;;;;;6.43;3.60;;;;;;;10.78;79.43;100071.25;4182316;28;20049;-59
2022/10/01 06:04:40;;;;;;;6.70;4.18;;;;;;;10.79;78.99;100065.19;4181440;28;20080;-60
2022/10/01 06:06:45;;;;;;;7.50;5.22;;;;;;;10.95;79.21;100040.16;4182184;28;20044;-59
2022/10/01 06:08:48;;;;;;;6.30;3.80;;;;;;;10.85;79.64;100040.94;4164374;28;20038;-59
2022/10/01 06:10:51;;;;;;;9.23;5.10;;;;;;;10.87;80.05;100044.44;4182198;28;20037;-59
2022/10/01 06:12:59;;;;;;;6.38;4.15;;;;;;;10.86;78.85;100037.50;4164444;28;20045;-59
2022/10/01 06:15:01;;;;;;;9.18;4.63;;;;;;;10.89;78.47;100042.72;4181333;28;20044;-59
2022/10/01 06:17:04;;;;;;;8.98;4.63;;;;;;;10.85;79.74;100035.75;4182166;28;20041;-59
2022/10/01 06:19:07;;;;;;;4.53;3.78;;;;;;;10.84;79.67;100042.69;4181969;28;20037;-60
2022/10/01 06:21:10;;;;;;;7.70;4.57;;;;;;;10.90;79.50;100034.06;4164320;28;20041;-59
2022/10/01 06:23:14;;;;;;;5.85;4.10;;;;;;;10.82;78.50;100027.09;4181702;28;20123;-60
2022/10/01 06:25:18;;;;;;;7.13;4.30;;;;;;;10.76;78.70;100042.66;4164443;28;20053;-60
2022/10/01 06:27:20;;;;;;;8.13;3.88;;;;;;;10.69;79.03;100038.28;4181832;28;20570;-59
2022/10/01 06:29:23;;;;;;;7.03;3.80;;;;;;;10.60;79.48;100040.78;4181719;28;20151;-59
2022/10/01 06:31:26;;;;;;;6.25;3.88;;;;;;;10.64;79.39;100026.94;4181808;28;20087;-59
2022/10/01 06:33:29;;;;;;;6.68;3.92;;;;;;;10.57;79.62;100031.25;4181001;28;20491;-59
2022/10/01 06:35:33;;;;;;;6.50;4.70;;;;;;;10.66;79.90;100025.25;4181671;28;20041;-59
2022/10/01 06:37:37;;;;;;;7.18;3.67;;;;;;;10.60;79.90;100023.47;4181663;28;20088;-59
2022/10/01 06:39:41;;;;;;;9.60;5.50;;;;;;;10.55;79.99;100030.34;4181731;28;20048;-59
2022/10/01 06:41:43;;;;;;;5.47;3.83;;;;;;;10.65;79.36;100023.50;4181911;28;20040;-60
2022/10/01 06:43:49;;;;;;;5.22;3.50;;;;;;;10.65;79.37;100023.50;4163206;28;20129;-59
2022/10/01 06:45:53;;;;;;;5.65;3.45;;;;;;;10.62;80.24;100023.50;4181636;28;20072;-59
2022/10/01 06:47:56;;;;;;;5.47;4.07;;;;;;;10.67;79.38;100034.78;4181810;28;20487;-59
2022/10/01 06:49:59;;;;;;;5.45;3.75;;;;;;;10.66;80.10;100022.66;4181535;28;20152;-59
2022/10/01 06:54:25;;;;;;;11.63;3.72;;;;;;;10.58;79.51;100032.13;4163110;28;20045;-60
2022/10/01 06:56:30;;;;;;;6.03;4.25;;;;;;;10.62;80.30;100033.88;4181414;28;20406;-59
2022/10/01 06:58:33;;;;;;;6.45;3.15;;;;;;;10.56;79.56;100033.84;4181445;28;20037;-59
2022/10/01 07:00:37;;;;;;;8.85;3.88;;;;;;;10.63;80.14;100038.19;4181397;28;20037;-60
2022/10/01 07:02:40;;;;;;;9.02;3.67;;;;;;;10.55;79.82;100037.28;4163636;28;20105;-59
2022/10/01 07:04:43;;;;;;;6.07;4.15;;;;;;;10.68;80.43;100049.53;4162766;28;20099;-59
2022/10/01 07:06:46;;;;;;;10.45;4.47;;;;;;;10.70;79.57;100042.59;4162998;28;20410;-59
2022/10/01 07:08:50;;;;;;;6.03;4.15;;;;;;;10.77;79.46;100038.31;4181284;28;20045;-60
2022/10/01 07:10:53;;;;;;;3.72;2.83;;;;;;;10.69;79.61;100038.28;4163512;28;20071;-59
2022/10/01 07:13:06;;;;;;;5.75;3.58;;;;;;;10.66;80.36;100030.44;4181387;28;20486;-59
2022/10/01 07:15:09;;;;;;;6.07;3.40;;;;;;;10.76;79.44;100032.25;4180750;28;20040;-59
2022/10/01 07:17:12;;;;;;;5.47;4.15;;;;;;;10.78;79.37;100040.06;4181096;28;20041;-59
2022/10/01 07:19:15;;;;;;;5.72;3.33;;;;;;;10.72;80.24;100037.41;4181046;28;20041;-59
2022/10/01 07:21:18;;;;;;;7.70;4.43;;;;;;;10.86;79.51;100037.50;4181065;28;20156;-59
2022/10/01 07:23:23;;;;;;;5.22;3.28;;;;;;;10.70;79.58;100032.19;4180074;28;20037;-59
2022/10/01 07:25:27;;;;;;;4.95;3.47;;;;;;;10.62;79.91;100033.88;4163338;28;20037;-59
2022/10/01 07:27:30;;;;;;;6.05;3.00;;;;;;;10.63;79.95;100025.19;4181044;28;20048;-59
2022/10/01 07:29:34;;;;;;;4.13;3.30;;;;;;;10.74;80.02;100031.34;4180858;28;20079;-59
2022/10/01 07:31:37;;;;;;;5.32;3.40;;;;;;;10.74;80.03;100018.34;4180981;28;20384;-59
2022/10/01 07:33:41;;;;;;;5.22;3.40;;;;;;;10.89;78.95;100014.09;4180105;28;20131;-59
2022/10/01 07:35:46;;;;;;;6.47;3.80;;;;;;;10.80;80.37;100012.31;4180828;28;20147;-59
2022/10/01 07:37:50;;;;;;;6.72;3.17;;;;;;;10.73;79.95;100007.94;4180948;28;20045;-59
2022/10/01 07:39:53;;;;;;;5.90;3.85;;;;;;;10.79;79.76;100010.56;4180853;28;20033;-59
2022/10/01 07:41:55;;;;;;;4.55;3.03;;;;;;;10.76;80.46;100005.38;4180770;28;20048;-60
2022/10/01 07:43:58;;;;;;;6.40;3.47;;;;;;;10.83;79.71;99997.63;4162238;28;20045;-59
2022/10/01 07:46:05;;;;;;;3.80;2.67;;;;;;;10.78;79.96;100014.91;4180695;28;20083;-59
2022/10/01 07:48:08;;;;;;;5.40;3.15;;;;;;;10.73;79.89;100005.34;4180802;28;20473;-59
2022/10/01 07:50:11;;;;;;;3.90;2.70;;;;;;;10.61;80.76;100026.94;4162823;28;20080;-59
2022/10/01 07:52:14;;;;;;;4.43;3.08;;;;;;;10.58;81.09;100026.91;4163027;28;20049;-59
2022/10/01 07:54:17;;;;;;;4.75;3.28;;;;;;;10.70;80.42;100021.78;4162072;28;20511;-59
2022/10/01 07:56:20;;;;;;;4.13;2.92;;;;;;;10.63;81.04;100014.81;4180577;28;20080;-59
2022/10/01 07:58:23;;;;;;;3.88;2.65;;;;;;;10.72;80.60;100021.78;4180781;28;20045;-59
2022/10/01 08:00:27;;;;;;;7.68;3.63;;;;;;;10.77;81.04;100013.16;4162818;28;20037;-59
2022/10/01 08:02:31;;;;;;;7.78;3.17;;;;;;;10.69;81.63;100014.88;4162853;28;20085;-59
2022/10/01 08:06:56;;;;;;;5.25;2.80;;;;;;;10.65;80.99;100024.38;4162753;28;20056;-59
2022/10/01 08:08:58;;;;;;;4.93;2.63;;;;;;;10.54;82.16;100043.34;4162925;28;20049;-59
2022/10/01 08:11:02;;;;;;;3.83;2.80;;;;;;;10.62;81.88;100050.34;4180501;28;20457;-59
2022/10/01 08:13:07;;;;;;;6.15;2.75;;;;;;;10.62;81.91;100039.94;4180389;28;20094;-59
2022/10/01 08:15:10;;;;;;;;;;;;;;;10.65;82.23;100042.56;4180506;28;20037;-59
2022/10/01 08:17:13;;;;;;;4.10;2.70;;;;;;;10.55;81.75;100030.34;4180475;28;19928;-59
2022/10/01 08:19:17;;;;;;;4.15;2.75;;;;;;;10.65;81.90;100029.56;4182312;28;20418;-58
2022/10/01 08:21:20;;;;;;;6.13;2.50;;;;;;;10.64;82.12;100025.25;4166246;28;20438;-59
2022/10/01 08:23:22;;;;;;;3.38;2.13;;;;;;;10.61;82.17;100016.53;4182872;28;20045;-59
2022/10/01 08:25:25;;;;;;;5.10;2.28;;;;;;;10.42;82.30;100013.78;4166130;28;20045;-59
2022/10/01 08:27:28;;;;;;;2.78;2.28;;;;;;;10.47;82.08;100019.91;4183769;28;20041;-59
2022/10/01 08:29:33;;;;;;;4.75;2.97;;;;;;;10.55;82.84;100006.09;4166046;28;20064;-59
2022/10/01 08:31:35;;;;;;;4.70;2.50;;;;;;;10.60;82.19;100001.78;4166018;28;20037;-59
2022/10/01 08:33:40;;;;;;;7.13;2.67;;;;;;;10.56;81.99;99997.47;4182879;28;20406;-59
2022/10/01 08:35:44;;;;;;;5.65;3.05;;;;;;;10.67;82.35;99980.19;4183725;28;20075;-59
2022/10/01 08:37:47;;;;;;;4.18;2.50;;;;;;;10.68;81.75;99961.13;4183825;28;20045;-59
2022/10/01 08:39:50;;;;;;;4.60;2.72;;;;;;;10.78;81.52;99934.31;4165947;28;20495;-58
2022/10/01 08:42:00;;;;;;;3.65;2.75;;;;;;;10.83;81.10;99932.63;4183605;28;20037;-59
2022/10/01 08:44:05;;;;;;;4.20;2.40;;;;;;;10.65;82.26;99925.59;4182751;28;20509;-59
2022/10/01 08:46:13;;;;;;;;;;;;;;;10.67;82.21;99922.13;4183962;28;20236;-59
2022/10/01 08:48:24;;;;;;;6.13;3.00;;;;;;;10.71;81.58;99974.13;4183419;28;20374;-59
2022/10/01 08:50:36;;;;;;;5.85;2.60;;;;;;;10.79;82.16;100003.66;4165755;28;20046;-59
2022/10/01 08:52:49;;;;;;;4.07;2.63;;;;;;;10.88;82.37;99999.34;4183394;28;20041;-59
2022/10/01 08:54:57;;;;;;;4.32;3.00;;;;;;;10.91;81.77;100012.41;4182618;28;20499;-59
2022/10/01 08:57:03;;;;;;;2.83;2.28;;;;;;;11.00;81.56;100020.25;4183416;28;20102;-59
2022/10/01 08:59:15;;;;;;;3.65;2.55;;;;;;;10.85;81.71;100022.75;4183338;28;20090;-59
2022/10/01 09:01:20;;;;;;;4.90;2.45;;;;;;;10.77;81.56;100007.97;4165471;28;20045;-59
2022/10/01 09:03:25;;;;;;;4.95;2.33;;;;;;;10.76;82.52;100001.06;4182533;28;20083;-59
2022/10/01 09:05:40;;;;;;;3.05;2.17;;;;;;;10.71;82.82;100000.13;4183099;28;20091;-60
2022/10/01 09:08:01;;;;;;;2.65;2.08;;;;;;;10.81;82.30;99994.13;4165830;28;20049;-59
2022/10/01 09:10:16;;;;;;;4.35;2.25;;;;;;;10.83;81.95;99973.34;4149030;28;20565;-59
2022/10/01 09:12:31;;;;;;;4.93;2.45;;;;;;;10.89;81.84;99960.34;4165376;28;20095;-60
2022/10/01 09:14:50;;;;;;;2.45;1.92;;;;;;;10.87;82.33;99961.22;4164534;28;20052;-59
2022/10/01 09:17:04;;;;;;;2.85;2.28;;;;;;;10.98;81.73;99970.81;4165233;28;20050;-59
2022/10/01 09:19:20;;;;;;;2.30;1.70;;;;;;;10.73;81.39;99994.94;4183057;28;20037;-59
2022/10/01 09:21:27;;;;;;;2.55;1.90;;;;;;;10.63;82.42;100010.50;4182941;28;20079;-59
2022/10/01 09:23:39;;;;;;;2.50;1.90;;;;;;;10.86;82.43;100006.28;4182071;28;20036;-60
2022/10/01 09:25:44;;;;;;;4.20;2.03;;;;;;;10.80;82.17;100010.59;4165079;28;20052;-59
2022/10/01 09:27:47;;;;;;;2.05;1.85;;;;;;;10.75;82.45;100009.69;4182855;28;20048;-59
2022/10/01 09:29:55;;;;;;;3.53;2.20;;;;;;;10.97;81.91;100012.44;4164521;28;20045;-59
2022/10/01 09:32:02;;;;;;;6.30;2.17;;;;;;;11.03;82.31;100012.47;4183075;28;20079;-59
2022/10/01 09:34:12;;;;;;;3.65;2.08;;;;;;;10.91;81.81;100018.47;4181973;28;20050;-60
2022/10/01 09:36:22;;;;;;;2.75;1.80;;;;;;;10.88;82.45;100026.25;4182708;28;20132;-60
2022/10/01 09:38:32;;;;;;;4.75;2.05;;;;;;;10.81;82.94;100025.34;4164940;28;20046;-59
2022/10/01 09:40:49;;;;;;;2.10;1.70;;;;;;;10.94;81.54;100018.47;4182673;28;20515;-59
2022/10/01 09:42:52;;;;;;;4.25;2.10;;;;;;;10.83;82.53;100017.53;4182767;28;20198;-59
2022/10/01 09:44:56;;;;;;;3.67;2.03;;;;;;;10.91;82.46;100007.22;4181811;28;20494;-59
2022/10/01 09:46:59;;;;;;;2.00;1.58;;;;;;;10.98;81.95;100006.34;4182501;28;20037;-59